Desdemona, Texas
Current Conditions -  °F | °C
As of 11:15 PM on Wednesday 22 Oct 2014 (Local Time) from KSEP Reporting Station
Overcast Overcast  
Wind Chill: 69°   Ceiling: 12000
Heat Index: 69°   Visibility: 10mi
Dew Point: 57°   Wind: 6mph
Humidity: 67%   Direction: 130°SE
Pressure: 30.14"   Gusts: NA
Location:  32.27°N, 98.55°W
Report Text: KSEP 230415Z AUTO 13005KT 10SM OVC120 21/14 A3014 RMK AO2 T02050141
Loading
Personal Weather Stations






























Interactive Weather Map
Tropical Storm Tracking
New forecast layout! Learn more

10-Day Weather Forecast

Advertisements
Track Severe Weather on mobile